Time;durP1;ratioP1;P1;durP2;ratioP2;P2;SDS_P1;SDS_P2;PMS_P1;PMS_P2;Temp;Humidity;BMP_temperature;BMP_pressure;BME280_temperature;BME280_humidity;BME280_pressure;Samples;Min_cycle;Max_cycle;Signal;HPM_P1;HPM_P2
2022/10/09 00:01:07;;;;;;;34.25;7.03;;;;;;;6.36;100.00;98767.13;5035284;28;20032;-56
2022/10/09 00:03:34;;;;;;;30.77;6.35;;;;;;;6.58;100.00;98772.91;5035666;28;20029;-55
2022/10/09 00:06:01;;;;;;;26.85;5.60;;;;;;;7.46;100.00;98764.75;5036787;28;20558;-57
2022/10/09 00:08:27;;;;;;;61.95;10.02;;;;;;;6.74;100.00;98769.22;5031869;28;20058;-55
2022/10/09 00:10:52;;;;;;;36.67;8.70;;;;;;;6.17;100.00;98766.47;5033630;28;20033;-56
2022/10/09 00:13:18;;;;;;;43.72;9.38;;;;;;;6.11;100.00;98761.38;5032455;28;20099;-56
2022/10/09 00:15:44;;;;;;;31.23;8.40;;;;;;;6.08;100.00;98753.63;5033906;28;20059;-55
2022/10/09 00:18:13;;;;;;;41.45;8.40;;;;;;;6.60;100.00;98757.31;5034794;28;20029;-57
2022/10/09 00:20:41;;;;;;;33.95;8.10;;;;;;;6.27;100.00;98762.91;5035331;28;20037;-55
2022/10/09 00:23:09;;;;;;;31.05;7.90;;;;;;;6.36;100.00;98756.78;5034829;28;20070;-56
2022/10/09 00:25:35;;;;;;;37.53;8.40;;;;;;;5.92;100.00;98756.34;5033229;28;20094;-58
2022/10/09 00:28:01;;;;;;;32.55;7.80;;;;;;;6.16;100.00;98754.41;5034142;28;20017;-55
2022/10/09 00:30:27;;;;;;;45.08;8.73;;;;;;;5.89;100.00;98760.69;5033906;28;20758;-55
2022/10/09 00:32:52;;;;;;;38.55;7.63;;;;;;;6.20;100.00;98761.25;5032863;28;20506;-55
2022/10/09 00:35:18;;;;;;;27.77;6.53;;;;;;;6.84;100.00;98764.78;5033501;28;20151;-57
2022/10/09 00:37:43;;;;;;;31.00;5.75;;;;;;;7.44;100.00;98761.28;5031737;28;20113;-55
2022/10/09 00:40:09;;;;;;;35.03;8.05;;;;;;;6.36;100.00;98767.13;5031869;28;20029;-55
2022/10/09 00:42:34;;;;;;;44.75;8.50;;;;;;;6.17;100.00;98759.53;5034192;28;20021;-56
2022/10/09 00:45:01;;;;;;;30.48;6.30;;;;;;;6.66;100.00;98763.28;5034690;28;20009;-56
2022/10/09 00:47:39;;;;;;;37.50;7.95;;;;;;;6.77;100.00;98767.50;5034411;28;20139;-55
2022/10/09 00:50:14;;;;;;;30.02;6.35;;;;;;;7.01;100.00;98767.13;5035745;28;20828;-55
2022/10/09 00:52:40;;;;;;;36.65;8.32;;;;;;;6.73;100.00;98761.50;5034599;28;20091;-55
2022/10/09 00:55:07;;;;;;;38.28;8.00;;;;;;;6.71;100.00;98769.28;5035606;28;20052;-57
2022/10/09 00:57:34;;;;;;;31.15;6.20;;;;;;;6.89;100.00;98756.94;5034358;28;20045;-55
2022/10/09 01:00:02;;;;;;;28.00;6.95;;;;;;;6.53;100.00;98761.75;5033031;28;20048;-57
2022/10/09 01:02:27;;;;;;;31.30;6.97;;;;;;;6.83;100.00;98754.44;5032282;28;20620;-57
2022/10/09 01:04:53;;;;;;;45.80;8.70;;;;;;;6.19;100.00;98754.34;5035549;28;20751;-57
2022/10/09 01:07:36;;;;;;;28.98;7.40;;;;;;;6.02;100.00;98751.94;5035555;28;20044;-55
2022/10/09 01:10:01;;;;;;;36.63;7.47;;;;;;;5.87;100.00;98742.59;5033039;28;20043;-54
2022/10/09 01:12:40;;;;;;;34.30;6.85;;;;;;;6.02;100.00;98744.19;5032602;28;20045;-54
2022/10/09 01:15:20;;;;;;;34.92;7.18;;;;;;;6.01;100.00;98749.38;5035240;28;20029;-56
2022/10/09 01:17:57;;;;;;;33.78;6.80;;;;;;;5.80;100.00;98748.69;5031871;28;20052;-55
2022/10/09 01:20:50;;;;;;;32.72;7.03;;;;;;;5.75;100.00;98748.75;5030886;28;20051;-55
2022/10/09 01:23:52;;;;;;;34.88;6.63;;;;;;;5.90;100.00;98744.25;5032419;28;20040;-55
2022/10/09 01:26:20;;;;;;;29.13;5.55;;;;;;;6.58;100.00;98736.63;5033850;28;20029;-55
2022/10/09 01:28:51;;;;;;;36.63;7.80;;;;;;;6.33;100.00;98746.44;5032497;28;20084;-58
2022/10/09 01:31:19;;;;;;;27.27;7.15;;;;;;;5.71;100.00;98741.84;5030611;28;20752;-55
2022/10/09 01:33:45;;;;;;;29.00;6.53;;;;;;;6.26;100.00;98735.28;5033560;28;20043;-57
2022/10/09 01:36:12;;;;;;;41.15;7.78;;;;;;;6.08;100.00;98741.50;5033020;28;20041;-57
2022/10/09 01:38:40;;;;;;;37.92;7.38;;;;;;;6.22;100.00;98738.78;5032970;28;20025;-56
2022/10/09 01:41:07;;;;;;;45.83;8.63;;;;;;;5.64;100.00;98735.03;5032814;28;20041;-56
2022/10/09 01:43:32;;;;;;;36.58;8.05;;;;;;;5.62;100.00;98738.50;5032084;28;20025;-55
2022/10/09 01:46:25;;;;;;;32.75;6.70;;;;;;;6.05;100.00;98731.22;5033023;28;20040;-55
2022/10/09 01:49:28;;;;;;;32.80;5.88;;;;;;;6.87;100.00;98732.75;5034849;28;20028;-55
2022/10/09 01:52:13;;;;;;;31.00;6.03;;;;;;;6.63;100.00;98726.19;5031643;28;20063;-56
2022/10/09 01:54:56;;;;;;;33.63;7.32;;;;;;;5.67;100.00;98734.16;5033535;28;20064;-54
2022/10/09 01:57:50;;;;;;;49.15;9.15;;;;;;;5.36;100.00;98730.09;5031740;28;20044;-56
2022/10/09 02:00:16;;;;;;;39.92;7.63;;;;;;;5.45;100.00;98718.81;5003293;28;20032;-55
2022/10/09 02:02:43;;;;;;;31.23;7.45;;;;;;;5.47;100.00;98722.25;5030929;28;20041;-56
2022/10/09 02:05:11;;;;;;;34.42;7.50;;;;;;;5.40;100.00;98725.75;5031812;28;20036;-55
2022/10/09 02:07:37;;;;;;;37.08;7.63;;;;;;;5.46;100.00;98705.03;5032941;28;20807;-55
2022/10/09 02:10:05;;;;;;;39.70;6.50;;;;;;;5.51;100.00;98713.56;5028794;28;20821;-55
2022/10/09 02:12:36;;;;;;;36.95;7.43;;;;;;;5.36;100.00;98716.31;5030099;28;20047;-55
2022/10/09 02:15:01;;;;;;;35.67;7.45;;;;;;;5.43;100.00;98709.38;5033837;28;20051;-55
2022/10/09 02:17:32;;;;;;;30.70;7.57;;;;;;;5.15;100.00;98710.44;5031430;28;20708;-56
2022/10/09 02:20:18;;;;;;;38.97;7.30;;;;;;;5.09;100.00;98704.44;5029529;28;20095;-55
2022/10/09 02:22:45;;;;;;;39.03;7.80;;;;;;;5.21;100.00;98700.03;5032823;28;20098;-58
2022/10/09 02:25:11;;;;;;;21.60;5.35;;;;;;;5.53;100.00;98700.63;5034099;28;20037;-56
2022/10/09 02:27:36;;;;;;;41.08;7.30;;;;;;;5.52;100.00;98709.28;5033958;28;20594;-56
2022/10/09 02:30:04;;;;;;;31.70;6.57;;;;;;;5.71;100.00;98704.78;5028471;28;20100;-55
2022/10/09 02:32:30;;;;;;;36.67;7.70;;;;;;;5.34;100.00;98700.78;5030447;28;20155;-55
2022/10/09 02:34:55;;;;;;;33.40;7.15;;;;;;;5.19;100.00;98696.63;5033394;28;20143;-55
2022/10/09 02:37:20;;;;;;;31.27;6.55;;;;;;;5.47;100.00;98696.38;5033274;28;20072;-56
2022/10/09 02:39:46;;;;;;;50.60;8.15;;;;;;;5.55;100.00;98693.69;5027999;28;20039;-55
2022/10/09 02:42:11;;;;;;;32.17;7.00;;;;;;;5.69;100.00;98696.16;5030602;28;20048;-54
2022/10/09 02:44:37;;;;;;;35.80;7.45;;;;;;;5.20;100.00;98697.47;5030841;28;20025;-56
2022/10/09 02:47:02;;;;;;;40.08;7.15;;;;;;;5.84;100.00;98695.16;5031929;28;20041;-55
2022/10/09 02:49:27;;;;;;;42.70;7.68;;;;;;;5.84;100.00;98700.31;5031076;28;20180;-54
2022/10/09 02:51:53;;;;;;;35.80;7.07;;;;;;;5.95;100.00;98693.28;5031251;28;20045;-55
2022/10/09 02:54:18;;;;;;;29.15;5.80;;;;;;;6.23;100.00;98698.19;5032630;28;20531;-55
2022/10/09 02:56:44;;;;;;;31.17;6.20;;;;;;;6.14;100.00;98694.84;5032669;28;20124;-55
2022/10/09 02:59:09;;;;;;;36.22;7.57;;;;;;;5.96;100.00;98700.22;5032331;28;20055;-54
2022/10/09 03:01:34;;;;;;;39.60;7.00;;;;;;;5.90;100.00;98690.78;5028795;28;20041;-55
2022/10/09 03:04:00;;;;;;;33.13;7.40;;;;;;;5.92;100.00;98699.38;5030983;28;20036;-55
2022/10/09 03:06:27;;;;;;;38.28;7.63;;;;;;;6.26;100.00;98698.16;5030972;28;20135;-58
2022/10/09 03:08:52;;;;;;;29.55;5.93;;;;;;;6.52;100.00;98700.41;5032840;28;20053;-55
2022/10/09 03:11:19;;;;;;;42.33;7.25;;;;;;;6.28;100.00;98702.44;5029532;28;20125;-55
2022/10/09 03:13:45;;;;;;;39.97;6.35;;;;;;;6.67;100.00;98705.41;5031060;28;20110;-55
2022/10/09 03:16:20;;;;;;;33.25;6.72;;;;;;;6.64;100.00;98710.59;5028703;28;20501;-54
2022/10/09 03:18:46;;;;;;;27.55;5.82;;;;;;;6.22;100.00;98702.50;5032518;28;20049;-56
2022/10/09 03:21:14;;;;;;;46.20;7.95;;;;;;;6.14;100.00;98714.72;5031661;28;20044;-55
2022/10/09 03:23:40;;;;;;;28.33;6.57;;;;;;;6.16;100.00;98710.38;5029224;28;20033;-56
2022/10/09 03:26:08;;;;;;;40.10;7.57;;;;;;;6.21;100.00;98708.56;5030666;28;20503;-58
2022/10/09 03:28:39;;;;;;;29.75;6.10;;;;;;;6.60;100.00;98708.94;5030594;28;20072;-55
2022/10/09 03:31:05;;;;;;;52.42;8.35;;;;;;;5.91;100.00;98707.16;5030703;28;20507;-55
2022/10/09 03:33:31;;;;;;;44.25;7.65;;;;;;;6.39;100.00;98698.84;5031784;28;20117;-57
2022/10/09 03:35:56;;;;;;;40.63;7.68;;;;;;;6.09;100.00;98706.13;5030095;28;20036;-55
2022/10/09 03:38:21;;;;;;;34.15;6.68;;;;;;;6.41;100.00;98700.53;5030407;28;20376;-55
2022/10/09 03:40:47;;;;;;;33.65;6.93;;;;;;;6.01;100.00;98698.47;5031577;28;20880;-55
2022/10/09 03:43:12;;;;;;;30.90;6.32;;;;;;;6.31;100.00;98706.72;5031111;28;20025;-55
2022/10/09 03:45:42;;;;;;;33.35;5.82;;;;;;;6.67;100.00;98700.22;5031117;28;20029;-54
2022/10/09 03:48:09;;;;;;;32.22;6.88;;;;;;;6.17;100.00;98709.47;5031932;28;20414;-55
2022/10/09 03:50:35;;;;;;;34.83;6.60;;;;;;;6.10;100.00;98692.28;5031643;28;20082;-58
2022/10/09 03:53:01;;;;;;;29.98;5.95;;;;;;;6.21;100.00;98695.59;5033583;28;20115;-56
2022/10/09 03:55:26;;;;;;;33.30;6.07;;;;;;;6.31;100.00;98702.41;5034309;28;22460;-57
2022/10/09 03:57:51;;;;;;;34.28;6.47;;;;;;;6.64;100.00;98700.25;5034164;28;20033;-56
2022/10/09 04:00:17;;;;;;;29.13;6.45;;;;;;;6.07;100.00;98703.56;5033573;28;20874;-59
2022/10/09 04:02:42;;;;;;;32.75;6.57;;;;;;;6.33;100.00;98704.97;5034584;28;20102;-57
2022/10/09 04:05:08;;;;;;;29.80;6.47;;;;;;;6.23;100.00;98712.00;5035663;28;20074;-55
2022/10/09 04:07:33;;;;;;;27.27;5.30;;;;;;;6.41;100.00;98702.28;5034941;28;20567;-58
2022/10/09 04:09:59;;;;;;;36.38;6.78;;;;;;;6.79;100.00;98703.50;5034564;28;20037;-56
2022/10/09 04:12:24;;;;;;;31.00;6.72;;;;;;;6.45;100.00;98709.13;5034699;28;20133;-55
2022/10/09 04:14:50;;;;;;;33.08;5.82;;;;;;;6.71;100.00;98701.88;5035347;28;20485;-55
2022/10/09 04:17:15;;;;;;;31.80;5.88;;;;;;;6.81;100.00;98699.16;5036168;28;20400;-57
2022/10/09 04:19:40;;;;;;;33.25;5.80;;;;;;;6.99;100.00;98708.41;5034419;28;20788;-56
2022/10/09 04:22:06;;;;;;;34.50;6.00;;;;;;;7.03;100.00;98708.31;5033942;28;20047;-55
2022/10/09 04:24:31;;;;;;;31.33;5.78;;;;;;;6.63;100.00;98708.88;5035363;28;20068;-55
2022/10/09 04:26:56;;;;;;;35.22;6.30;;;;;;;6.91;100.00;98714.56;5034183;28;20039;-56
2022/10/09 04:29:22;;;;;;;28.10;5.82;;;;;;;6.14;100.00;98706.94;5034467;28;20048;-57
2022/10/09 04:31:47;;;;;;;26.88;5.40;;;;;;;6.80;100.00;98702.59;5034010;28;20044;-55
2022/10/09 04:34:13;;;;;;;35.10;6.47;;;;;;;6.01;100.00;98694.97;5035707;28;20029;-55
2022/10/09 04:36:38;;;;;;;22.27;5.50;;;;;;;6.18;100.00;98711.19;5035114;28;20041;-54
2022/10/09 04:39:04;;;;;;;35.67;5.78;;;;;;;6.65;100.00;98698.50;5033758;28;20025;-55
2022/10/09 04:41:29;;;;;;;34.85;5.85;;;;;;;6.63;100.00;98706.28;5033687;28;20041;-56
2022/10/09 04:43:55;;;;;;;28.00;5.18;;;;;;;6.78;100.00;98706.97;5035906;28;20031;-55
2022/10/09 04:46:21;;;;;;;35.45;6.07;;;;;;;6.69;100.00;98702.75;5035224;28;20041;-58
2022/10/09 04:48:47;;;;;;;28.30;5.32;;;;;;;6.64;100.00;98708.03;5034501;28;20029;-56
2022/10/09 04:51:14;;;;;;;34.10;5.85;;;;;;;6.30;100.00;98705.00;5030743;28;20068;-55
2022/10/09 04:53:40;;;;;;;28.52;5.65;;;;;;;5.67;100.00;98708.28;5031913;28;20032;-56
2022/10/09 04:56:17;;;;;;;27.73;5.28;;;;;;;6.08;100.00;98704.41;5034580;28;20037;-56
2022/10/09 04:58:44;;;;;;;27.23;5.50;;;;;;;6.01;100.00;98707.94;5035454;28;20050;-57
2022/10/09 05:01:11;;;;;;;65.55;8.43;;;;;;;6.30;100.00;98700.66;5030326;28;20617;-58
2022/10/09 05:03:37;;;;;;;38.50;6.78;;;;;;;6.11;100.00;98710.41;5031574;28;20037;-58
2022/10/09 05:06:04;;;;;;;29.90;6.30;;;;;;;5.23;100.00;98705.22;5030407;28;20030;-56
2022/10/09 05:08:30;;;;;;;39.35;6.43;;;;;;;5.91;100.00;98697.66;5034381;28;20569;-56
2022/10/09 05:11:04;;;;;;;30.02;5.65;;;;;;;5.95;100.00;98704.53;5034682;28;20037;-56
2022/10/09 05:13:31;;;;;;;29.33;5.97;;;;;;;6.30;100.00;98698.06;5033709;28;20025;-56
2022/10/09 05:16:00;;;;;;;23.98;4.88;;;;;;;6.50;100.00;98702.16;5032468;28;20064;-56
2022/10/09 05:18:25;;;;;;;26.42;5.65;;;;;;;5.89;100.00;98716.69;5031356;28;20037;-58
2022/10/09 05:20:51;;;;;;;28.38;5.47;;;;;;;6.25;100.00;98707.66;5032624;28;20505;-57
2022/10/09 05:23:16;;;;;;;33.15;5.35;;;;;;;6.85;100.00;98699.06;5033758;28;20067;-56
2022/10/09 05:25:41;;;;;;;39.60;6.47;;;;;;;6.64;100.00;98718.38;5029817;28;20043;-57
2022/10/09 05:28:07;;;;;;;29.33;5.10;;;;;;;6.48;100.00;98720.31;5034955;28;20060;-57
2022/10/09 05:30:32;;;;;;;28.80;5.43;;;;;;;6.63;100.00;98718.41;5034360;28;20033;-59
2022/10/09 05:32:57;;;;;;;28.65;5.53;;;;;;;6.40;100.00;98722.16;5033143;28;20442;-56
2022/10/09 05:35:23;;;;;;;30.88;5.88;;;;;;;6.29;100.00;98718.84;5032872;28;20458;-58
2022/10/09 05:37:48;;;;;;;31.98;5.55;;;;;;;6.47;100.00;98728.97;5033859;28;20032;-56
2022/10/09 05:40:14;;;;;;;30.10;6.97;;;;;;;6.15;100.00;98727.63;5032946;28;20021;-56
2022/10/09 05:42:39;;;;;;;29.38;6.57;;;;;;;5.90;100.00;98727.03;5033258;28;20517;-56
2022/10/09 05:45:05;;;;;;;29.10;5.45;;;;;;;6.29;100.00;98724.88;5032586;28;20426;-56
2022/10/09 05:47:30;;;;;;;24.05;5.25;;;;;;;6.88;100.00;98724.13;5030524;28;20033;-56
2022/10/09 05:49:56;;;;;;;29.60;5.80;;;;;;;6.72;100.00;98724.31;5032160;28;20079;-56
2022/10/09 05:52:21;;;;;;;26.98;6.03;;;;;;;6.60;100.00;98731.41;5033543;28;20123;-56
2022/10/09 05:54:46;;;;;;;32.08;6.38;;;;;;;6.67;100.00;98739.09;5031414;28;20439;-56
2022/10/09 05:57:12;;;;;;;33.63;6.32;;;;;;;6.95;100.00;98725.75;5032653;28;20033;-57
2022/10/09 05:59:37;;;;;;;45.35;8.45;;;;;;;6.06;100.00;98725.13;5030876;28;20020;-58
2022/10/09 06:02:03;;;;;;;34.47;6.60;;;;;;;6.08;100.00;98725.13;5032026;28;20940;-57
2022/10/09 06:04:28;;;;;;;30.13;5.50;;;;;;;7.04;100.00;98722.13;5033931;28;20315;-57
2022/10/09 06:06:54;;;;;;;35.72;6.85;;;;;;;5.92;100.00;98730.44;5034506;28;20037;-56
2022/10/09 06:09:22;;;;;;;35.40;7.20;;;;;;;5.47;100.00;98722.25;5032456;28;20068;-57
2022/10/09 06:11:49;;;;;;;28.38;7.25;;;;;;;5.53;100.00;98724.78;5031915;28;20033;-57
2022/10/09 06:14:15;;;;;;;41.50;9.05;;;;;;;5.78;100.00;98729.72;5030871;28;20025;-57
2022/10/09 06:16:43;;;;;;;33.88;8.02;;;;;;;6.33;100.00;98726.56;5031156;28;20044;-55
2022/10/09 06:19:14;;;;;;;32.67;7.72;;;;;;;7.06;100.00;98723.84;5033523;28;20029;-55
2022/10/09 06:21:40;;;;;;;35.03;8.48;;;;;;;7.97;100.00;98724.03;5030018;28;20051;-56
2022/10/09 06:24:07;;;;;;;1999.90;363.05;;;;;;;9.95;100.00;98698.69;5033312;28;20082;-54
2022/10/09 06:26:32;;;;;;;1999.90;603.08;;;;;;;12.03;100.00;98666.06;5031388;28;20160;-58
2022/10/09 06:29:00;;;;;;;108.70;10.43;;;;;;;12.05;100.00;98690.41;5033249;28;20020;-56
2022/10/09 06:31:30;;;;;;;30.73;7.72;;;;;;;10.66;100.00;98717.56;5029433;28;20564;-55
2022/10/09 06:33:58;;;;;;;23.40;6.85;;;;;;;10.98;100.00;98708.75;5032621;28;20032;-57
2022/10/09 06:36:26;;;;;;;29.00;7.10;;;;;;;11.78;100.00;98734.00;5030258;28;20098;-57
2022/10/09 06:38:52;;;;;;;27.35;7.03;;;;;;;11.33;100.00;98747.69;5029169;28;20025;-54
2022/10/09 06:41:20;;;;;;;29.65;6.55;;;;;;;11.97;100.00;98754.34;5032017;28;20033;-55
2022/10/09 06:44:00;;;;;;;32.55;7.30;;;;;;;11.35;100.00;98754.56;5033173;28;20064;-57
2022/10/09 06:46:31;;;;;;;25.33;6.38;;;;;;;13.29;100.00;98766.00;5032855;28;20135;-55
2022/10/09 06:48:58;;;;;;;25.90;5.78;;;;;;;14.29;100.00;98765.38;5032430;28;20915;-56
2022/10/09 06:51:24;;;;;;;18.27;5.22;;;;;;;16.88;100.00;98772.91;5028461;28;20068;-54
2022/10/09 06:53:54;;;;;;;27.35;6.22;;;;;;;15.88;100.00;98778.13;5032690;28;20063;-55
2022/10/09 06:56:22;;;;;;;24.33;5.97;;;;;;;15.57;100.00;98778.75;5029086;28;20581;-55
2022/10/09 06:58:48;;;;;;;29.25;6.10;;;;;;;14.04;100.00;98780.44;5035723;28;20112;-57
2022/10/09 07:01:18;;;;;;;46.90;8.32;;;;;;;14.77;100.00;98780.72;5027776;28;20124;-58
2022/10/09 07:03:47;;;;;;;24.38;5.72;;;;;;;13.59;100.00;98773.56;5026628;28;20432;-56
2022/10/09 07:06:18;;;;;;;20.67;5.28;;;;;;;12.23;100.00;98779.59;5033005;28;20033;-58
2022/10/09 07:08:45;;;;;;;19.88;5.40;;;;;;;13.22;100.00;98777.63;5033918;28;20033;-57
2022/10/09 07:11:21;;;;;;;21.08;5.50;;;;;;;14.63;100.00;98783.13;5033761;28;20041;-56
2022/10/09 07:13:49;;;;;;;17.45;4.53;;;;;;;14.12;100.00;98781.88;5033790;28;20036;-58
2022/10/09 07:16:22;;;;;;;15.07;4.43;;;;;;;16.47;100.00;98785.63;5034342;28;20615;-57
2022/10/09 07:18:47;;;;;;;17.80;4.60;;;;;;;19.13;100.00;98786.16;5033828;28;20032;-56
2022/10/09 07:21:13;;;;;;;23.55;5.18;;;;;;;19.02;100.00;98793.91;5030461;28;20037;-57
2022/10/09 07:23:38;;;;;;;20.38;4.70;;;;;;;20.63;100.00;98801.00;5033152;28;20029;-56
2022/10/09 07:26:20;;;;;;;20.55;4.63;;;;;;;20.95;88.41;98795.22;5028341;28;20731;-57
2022/10/09 07:28:46;;;;;;;13.73;4.18;;;;;;;20.47;82.29;98801.16;5037948;28;20025;-57
2022/10/09 07:31:12;;;;;;;21.52;5.10;;;;;;;20.31;83.63;98795.22;5033078;28;20356;-57
2022/10/09 07:33:38;;;;;;;11.15;3.60;;;;;;;20.41;74.49;98798.94;5035092;28;20095;-59
2022/10/09 07:36:05;;;;;;;13.57;3.97;;;;;;;22.93;74.13;98802.66;5037455;28;20124;-57
2022/10/09 07:38:31;;;;;;;12.70;3.40;;;;;;;21.67;75.50;98797.13;5039810;28;20112;-57
2022/10/09 07:41:01;;;;;;;12.25;3.58;;;;;;;21.42;71.52;98803.38;5038238;28;20617;-56
2022/10/09 07:43:27;;;;;;;11.57;3.60;;;;;;;23.04;66.42;98800.84;5035501;28;20034;-59
2022/10/09 07:45:52;;;;;;;13.77;3.65;;;;;;;24.04;60.04;98814.03;5036767;28;20124;-58
2022/10/09 07:48:18;;;;;;;14.85;4.13;;;;;;;23.72;65.97;98802.50;5036945;28;20046;-60
2022/10/09 07:50:43;;;;;;;11.80;3.60;;;;;;;22.25;61.30;98802.53;5037686;28;20122;-60
2022/10/09 07:53:08;;;;;;;11.68;3.60;;;;;;;24.47;60.24;98801.56;5038604;28;20497;-57
2022/10/09 07:55:35;;;;;;;11.45;3.38;;;;;;;24.52;56.09;98806.47;5036773;28;20048;-57
2022/10/09 07:58:00;;;;;;;11.15;3.50;;;;;;;22.41;62.80;98802.25;5037434;28;20491;-59
2022/10/09 08:00:25;;;;;;;16.83;3.70;;;;;;;24.94;51.67;98796.63;5036956;28;20126;-59
2022/10/09 08:02:51;;;;;;;11.15;3.20;;;;;;;24.08;55.62;98801.31;5038338;28;20028;-56
2022/10/09 08:05:16;;;;;;;8.45;3.05;;;;;;;25.08;51.99;98784.72;5036351;28;20569;-57
2022/10/09 08:07:41;;;;;;;14.38;3.75;;;;;;;24.60;50.95;98785.38;5035639;28;20824;-59
2022/10/09 08:10:07;;;;;;;11.32;3.53;;;;;;;24.01;56.36;98779.66;5035848;28;20052;-54
2022/10/09 08:12:33;;;;;;;14.07;3.92;;;;;;;24.49;55.39;98772.09;5036678;28;20033;-56
2022/10/09 08:14:58;;;;;;;19.65;3.85;;;;;;;22.35;60.56;98774.34;5036305;28;20540;-56
2022/10/09 08:17:23;;;;;;;10.93;3.50;;;;;;;20.97;64.05;98772.09;5038654;28;20082;-57
2022/10/09 08:19:48;;;;;;;13.30;3.50;;;;;;;23.72;55.52;98778.53;5037276;28;20360;-55
2022/10/09 08:22:14;;;;;;;11.48;3.53;;;;;;;24.50;54.44;98773.75;5033234;28;20485;-55
2022/10/09 08:24:39;;;;;;;12.65;3.63;;;;;;;23.35;58.79;98765.59;5035655;28;20025;-55
2022/10/09 08:27:05;;;;;;;12.90;3.63;;;;;;;23.89;54.30;98764.69;5034891;28;20128;-57
2022/10/09 08:29:31;;;;;;;14.95;4.15;;;;;;;22.46;53.27;98769.03;5036855;28;20119;-60
2022/10/09 08:31:56;;;;;;;11.30;3.45;;;;;;;24.50;51.84;98763.09;5036059;28;20067;-56
2022/10/09 08:34:22;;;;;;;12.18;3.50;;;;;;;23.46;53.25;98761.06;5037620;28;20079;-58
2022/10/09 08:36:47;;;;;;;15.70;4.07;;;;;;;21.10;58.13;98757.00;5034300;28;20981;-58
2022/10/09 08:39:13;;;;;;;13.00;3.67;;;;;;;19.81;70.80;98750.03;5036117;28;20685;-58
2022/10/09 08:41:45;;;;;;;12.98;3.60;;;;;;;19.73;78.05;98752.34;5037747;28;20044;-58
2022/10/09 08:44:28;;;;;;;14.07;3.53;;;;;;;19.73;80.60;98758.50;5036279;28;20033;-55
2022/10/09 08:47:02;;;;;;;19.83;4.07;;;;;;;19.57;80.40;98752.47;5034687;28;20036;-58
2022/10/09 08:49:36;;;;;;;20.13;4.50;;;;;;;20.67;74.28;98752.09;5035939;28;20032;-57
2022/10/09 08:52:22;;;;;;;16.70;3.85;;;;;;;23.07;65.65;98751.88;5032728;28;20667;-57
2022/10/09 08:54:48;;;;;;;14.60;3.63;;;;;;;23.51;60.20;98758.06;5037469;28;20037;-56
2022/10/09 08:57:15;;;;;;;17.65;4.10;;;;;;;21.48;66.28;98749.88;5035767;28;20052;-55
2022/10/09 08:59:42;;;;;;;22.55;4.70;;;;;;;21.80;62.88;98741.31;5034641;28;20039;-55
2022/10/09 09:02:23;;;;;;;20.88;4.35;;;;;;;22.07;67.48;98749.81;5033969;28;20048;-55
2022/10/09 09:05:01;;;;;;;13.73;3.30;;;;;;;22.48;62.13;98745.00;5036872;28;20388;-58
2022/10/09 09:07:48;;;;;;;14.23;3.38;;;;;;;22.88;59.23;98747.13;5034861;28;20063;-56
2022/10/09 09:10:32;;;;;;;15.95;3.75;;;;;;;22.31;59.28;98741.84;5032893;28;20025;-57
2022/10/09 09:13:16;;;;;;;13.60;3.28;;;;;;;22.06;63.78;98737.53;5035708;28;20017;-58
2022/10/09 09:16:32;;;;;;;12.80;3.35;;;;;;;21.15;59.88;98732.78;5035793;28;20132;-56
2022/10/09 09:18:57;;;;;;;14.23;3.50;;;;;;;22.38;57.71;98741.34;5020305;28;20029;-56
2022/10/09 09:21:52;;;;;;;16.05;3.80;;;;;;;23.57;60.62;98735.38;5035645;28;20062;-57
2022/10/09 09:24:39;;;;;;;19.73;4.22;;;;;;;23.88;55.96;98730.19;5035745;28;20029;-56
2022/10/09 09:27:13;;;;;;;12.93;3.33;;;;;;;21.52;59.44;98725.66;5034176;28;20147;-57
2022/10/09 09:29:44;;;;;;;21.42;4.85;;;;;;;23.37;53.04;98729.06;5034621;28;20025;-59
2022/10/09 09:32:18;;;;;;;15.18;3.28;;;;;;;23.04;55.64;98720.19;5035981;28;20119;-57
2022/10/09 09:34:43;;;;;;;13.18;3.38;;;;;;;24.07;54.14;98726.81;5034476;28;20033;-56
2022/10/09 09:37:12;;;;;;;13.77;3.50;;;;;;;23.76;51.83;98726.69;5033832;28;20036;-56
2022/10/09 09:39:39;;;;;;;29.10;4.75;;;;;;;22.16;57.11;98716.41;5033830;28;20050;-58
2022/10/09 09:42:16;;;;;;;14.20;3.30;;;;;;;23.95;53.49;98720.69;5032542;28;20036;-57
2022/10/09 09:44:48;;;;;;;15.10;3.53;;;;;;;24.99;50.20;98716.97;5034016;28;20785;-57
2022/10/09 09:47:21;;;;;;;13.20;2.90;;;;;;;25.19;48.57;98717.84;5035406;28;20024;-57
2022/10/09 09:49:59;;;;;;;17.52;3.78;;;;;;;24.90;45.96;98712.44;5035010;28;20030;-57
2022/10/09 09:52:28;;;;;;;10.70;2.78;;;;;;;25.01;47.44;98706.16;5033622;28;20082;-56
2022/10/09 09:54:56;;;;;;;15.20;3.63;;;;;;;26.04;44.02;98707.47;5037019;28;20025;-58
2022/10/09 09:57:39;;;;;;;11.80;2.88;;;;;;;24.42;44.41;98710.44;5034983;28;20039;-57
2022/10/09 10:00:21;;;;;;;11.77;2.90;;;;;;;24.23;45.87;98703.19;5034512;28;20036;-58
2022/10/09 10:02:46;;;;;;;21.13;4.47;;;;;;;22.88;46.40;98705.44;5029571;28;20447;-56
2022/10/09 10:05:24;;;;;;;13.57;3.10;;;;;;;24.34;44.05;98695.09;5032096;28;20031;-57
2022/10/09 10:07:50;;;;;;;24.92;4.57;;;;;;;23.17;47.26;98702.25;5029763;28;20144;-59
2022/10/09 10:10:23;;;;;;;15.90;3.30;;;;;;;21.11;49.76;98689.72;5031993;28;20440;-58
2022/10/09 10:12:55;;;;;;;15.82;3.45;;;;;;;23.71;44.82;98679.16;5032700;28;20630;-57
2022/10/09 10:15:29;;;;;;;17.40;3.63;;;;;;;21.95;45.74;98689.69;5034544;28;20941;-59
2022/10/09 10:18:00;;;;;;;14.90;3.15;;;;;;;24.20;45.39;98687.47;5033019;28;20045;-58
2022/10/09 10:20:27;;;;;;;;;;;;;;;22.81;43.81;98667.00;5035179;28;20040;-58
2022/10/09 10:22:55;;;;;;;13.10;2.85;;;;;;;23.42;43.06;98668.28;5033022;28;19967;-57
2022/10/09 10:25:26;;;;;;;12.98;2.88;;;;;;;23.03;45.57;98665.22;5034063;28;20042;-58
2022/10/09 10:27:57;;;;;;;14.63;3.30;;;;;;;22.96;45.18;98667.56;5033715;28;20029;-58
2022/10/09 10:30:23;;;;;;;15.18;3.30;;;;;;;21.46;47.21;98673.03;5031584;28;20827;-58
2022/10/09 10:33:09;;;;;;;25.58;4.20;;;;;;;20.32;47.91;98662.66;5030335;28;20056;-58
2022/10/09 10:35:37;;;;;;;18.85;3.47;;;;;;;21.22;47.20;98657.09;5031601;28;20529;-59
2022/10/09 10:38:27;;;;;;;17.92;3.22;;;;;;;21.12;45.82;98648.16;5033162;28;20108;-56
2022/10/09 10:41:10;;;;;;;15.32;3.10;;;;;;;19.81;46.77;98663.56;5030997;28;20043;-56
2022/10/09 10:43:50;;;;;;;12.93;2.80;;;;;;;20.27;47.87;98658.66;5034066;28;20633;-57
2022/10/09 10:46:29;;;;;;;19.58;3.63;;;;;;;20.99;46.23;98653.50;5033705;28;20754;-57
2022/10/09 10:48:57;;;;;;;19.60;3.40;;;;;;;20.76;45.90;98652.53;5034692;28;20136;-56
2022/10/09 10:51:44;;;;;;;23.88;4.32;;;;;;;19.89;48.02;98646.25;5028391;28;20044;-59
2022/10/09 10:54:15;;;;;;;21.15;3.85;;;;;;;20.21;49.35;98636.09;5034699;28;20054;-56
2022/10/09 10:56:50;;;;;;;18.60;3.60;;;;;;;20.54;50.42;98632.84;5032965;28;20045;-56
2022/10/09 10:59:40;;;;;;;16.35;3.22;;;;;;;19.83;50.99;98632.53;5031429;28;20030;-56
2022/10/09 11:02:36;;;;;;;20.27;3.78;;;;;;;20.17;51.16;98635.47;5032945;28;20460;-57
2022/10/09 11:05:13;;;;;;;19.75;3.90;;;;;;;20.29;47.68;98628.47;5037491;28;20539;-58
2022/10/09 11:08:05;;;;;;;24.33;4.30;;;;;;;19.86;48.33;98623.50;5037094;28;20602;-57
2022/10/09 11:11:01;;;;;;;23.38;4.00;;;;;;;19.17;50.35;98622.84;5037495;28;20045;-56
2022/10/09 11:13:32;;;;;;;16.92;3.42;;;;;;;19.51;50.47;98620.63;5037683;28;20036;-58
2022/10/09 11:16:34;;;;;;;15.13;3.47;;;;;;;19.86;50.78;98614.72;5032221;28;20045;-55
2022/10/09 11:19:19;;;;;;;;;;;;;;;19.80;49.46;98608.06;5037718;28;20059;-58
2022/10/09 11:21:49;;;;;;;30.83;4.80;;;;;;;19.73;50.53;98599.69;5030586;28;19924;-58
2022/10/09 11:24:25;;;;;;;19.48;3.00;;;;;;;19.87;50.53;98596.09;5034220;28;20636;-56
2022/10/09 11:27:04;;;;;;;26.50;3.80;;;;;;;19.15;51.63;98593.03;5037086;28;20530;-56
2022/10/09 11:29:36;;;;;;;22.80;4.03;;;;;;;19.44;51.73;98589.25;5036203;28;20041;-56
2022/10/09 11:32:10;;;;;;;25.60;4.18;;;;;;;18.64;54.90;98589.25;5033759;28;20367;-57
2022/10/09 11:34:48;;;;;;;17.10;3.38;;;;;;;17.97;57.58;98581.16;5036306;28;20030;-56
2022/10/09 11:37:21;;;;;;;17.85;3.30;;;;;;;18.39;60.59;98582.03;5035476;28;20037;-57